createdAt,value
2023-04-28T00:00:06.369Z,14.00
2023-04-28T00:02:34.348Z,13.90
2023-04-28T00:05:02.119Z,13.90
2023-04-28T00:07:28.971Z,13.80
2023-04-28T00:09:57.043Z,13.80
2023-04-28T00:12:24.075Z,13.70
2023-04-28T00:14:51.188Z,13.70
2023-04-28T00:17:18.019Z,13.70
2023-04-28T00:19:45.226Z,13.70
2023-04-28T00:22:11.975Z,13.80
2023-04-28T00:24:38.780Z,13.70
2023-04-28T00:27:05.608Z,13.60
2023-04-28T00:29:32.411Z,13.70
2023-04-28T00:31:59.404Z,13.70
2023-04-28T00:34:26.183Z,13.70
2023-04-28T00:36:52.997Z,13.70
2023-04-28T00:39:20.025Z,13.70
2023-04-28T00:41:46.814Z,13.70
2023-04-28T00:44:13.780Z,13.70
2023-04-28T00:46:41.320Z,13.70
2023-04-28T00:49:08.162Z,13.80
2023-04-28T00:51:35.730Z,13.90
2023-04-28T00:54:02.888Z,13.90
2023-04-28T00:56:31.362Z,13.90
2023-04-28T00:58:58.714Z,14.00
2023-04-28T01:01:25.813Z,13.90
2023-04-28T01:03:53.238Z,14.00
2023-04-28T01:06:20.448Z,14.10
2023-04-28T01:08:50.171Z,14.00
2023-04-28T01:11:17.573Z,14.00
2023-04-28T01:13:44.332Z,14.10
2023-04-28T01:16:11.764Z,14.00
2023-04-28T01:18:42.785Z,14.10
2023-04-28T01:21:09.759Z,14.10
2023-04-28T01:23:36.571Z,14.30
2023-04-28T01:26:03.359Z,14.20
2023-04-28T01:28:30.117Z,14.00
2023-04-28T01:30:56.926Z,14.10
2023-04-28T01:33:23.753Z,14.00
2023-04-28T01:35:50.690Z,13.90
2023-04-28T01:38:17.619Z,14.00
2023-04-28T01:40:44.487Z,14.00
2023-04-28T01:43:11.476Z,14.00
2023-04-28T01:45:38.332Z,14.10
2023-04-28T01:48:05.793Z,14.00
2023-04-28T01:50:32.530Z,14.00
2023-04-28T01:52:59.390Z,14.10
2023-04-28T01:55:26.550Z,14.10
2023-04-28T01:57:53.265Z,14.10
2023-04-28T02:00:20.450Z,14.10
2023-04-28T02:02:47.429Z,14.10
2023-04-28T02:05:14.414Z,14.10
2023-04-28T02:07:41.436Z,14.10
2023-04-28T02:10:09.174Z,14.10
2023-04-28T02:12:36.222Z,14.10
2023-04-28T02:15:03.070Z,14.10
2023-04-28T02:17:33.006Z,14.10
2023-04-28T02:19:59.974Z,14.10
2023-04-28T02:22:27.082Z,14.00
2023-04-28T02:24:53.850Z,14.10
2023-04-28T02:27:21.532Z,14.00
2023-04-28T02:29:48.583Z,13.90
2023-04-28T02:32:15.387Z,13.90
2023-04-28T02:34:42.185Z,13.90
2023-04-28T02:37:09.081Z,13.80
2023-04-28T02:39:36.046Z,13.80
2023-04-28T02:42:05.471Z,13.80
2023-04-28T02:44:32.258Z,13.80
2023-04-28T02:46:59.182Z,13.90
2023-04-28T02:49:26.052Z,13.90
2023-04-28T02:51:53.109Z,13.90
2023-04-28T02:54:27.799Z,13.90
2023-04-28T02:56:55.524Z,13.90
2023-04-28T02:59:23.315Z,13.90
2023-04-28T03:01:50.404Z,13.90
2023-04-28T03:04:17.742Z,14.10
2023-04-28T03:06:44.963Z,14.00
2023-04-28T03:09:12.612Z,14.00
2023-04-28T03:11:39.573Z,14.00
2023-04-28T03:14:06.392Z,14.10
2023-04-28T03:16:33.677Z,14.10
2023-04-28T03:19:00.837Z,14.20
2023-04-28T03:21:27.901Z,14.20
2023-04-28T03:23:54.797Z,14.20
2023-04-28T03:26:21.646Z,14.20
2023-04-28T03:28:48.998Z,14.20
2023-04-28T03:31:15.942Z,14.20
2023-04-28T03:33:45.521Z,14.20
2023-04-28T03:36:12.372Z,14.30
2023-04-28T03:38:39.327Z,14.30
2023-04-28T03:41:06.095Z,14.30
2023-04-28T03:43:33.645Z,14.30
2023-04-28T03:46:00.532Z,14.20
2023-04-28T03:48:27.506Z,14.30
2023-04-28T03:50:54.381Z,14.30
2023-04-28T03:53:21.150Z,14.30
2023-04-28T03:55:48.431Z,14.30
2023-04-28T03:58:15.302Z,14.30
2023-04-28T04:00:42.096Z,14.40
2023-04-28T04:03:08.953Z,14.40
2023-04-28T04:05:36.036Z,14.30
2023-04-28T04:08:03.160Z,14.40
2023-04-28T04:10:30.021Z,14.40
2023-04-28T04:12:56.774Z,14.50
2023-04-28T04:15:23.641Z,14.60
2023-04-28T04:17:50.647Z,14.50
2023-04-28T04:20:17.604Z,14.60
2023-04-28T04:22:44.481Z,14.60
2023-04-28T04:25:11.323Z,14.50
2023-04-28T04:27:38.099Z,14.50
2023-04-28T04:30:05.946Z,14.50
2023-04-28T04:32:33.035Z,14.50
2023-04-28T04:34:59.997Z,14.60
2023-04-28T04:37:27.461Z,14.60
2023-04-28T04:39:55.152Z,14.50
2023-04-28T04:42:24.855Z,14.50
2023-04-28T04:44:52.706Z,14.60
2023-04-28T04:47:19.687Z,14.70
2023-04-28T04:49:46.454Z,14.60
2023-04-28T04:52:13.371Z,14.60
2023-04-28T04:54:40.481Z,14.60
2023-04-28T04:57:07.768Z,14.60
2023-04-28T04:59:34.635Z,14.60
2023-04-28T05:02:01.689Z,14.60
2023-04-28T05:04:28.707Z,14.60
2023-04-28T05:06:55.579Z,14.70
2023-04-28T05:09:23.144Z,14.70
2023-04-28T05:11:50.344Z,14.60
2023-04-28T05:14:17.847Z,14.60
2023-04-28T05:16:44.949Z,14.60
2023-04-28T05:19:11.815Z,14.60
2023-04-28T05:21:38.620Z,14.60
2023-04-28T05:24:05.788Z,14.50
2023-04-28T05:26:32.622Z,14.60
2023-04-28T05:28:59.365Z,14.50
2023-04-28T05:31:26.237Z,14.50
2023-04-28T05:33:53.323Z,14.50
2023-04-28T05:36:20.121Z,14.50
2023-04-28T05:38:47.078Z,14.50
2023-04-28T05:41:13.876Z,14.60
2023-04-28T05:43:40.643Z,14.60
2023-04-28T05:46:18.178Z,14.60
2023-04-28T05:48:49.159Z,14.60
2023-04-28T05:51:16.027Z,14.70
2023-04-28T05:53:43.091Z,14.70
2023-04-28T05:56:09.913Z,14.70
2023-04-28T05:58:36.720Z,14.70
2023-04-28T06:01:03.526Z,14.80
2023-04-28T06:03:30.800Z,14.90
2023-04-28T06:05:57.896Z,14.90
2023-04-28T06:08:24.832Z,15.00
2023-04-28T06:10:51.681Z,14.90
2023-04-28T06:13:18.572Z,14.90
2023-04-28T06:15:45.686Z,14.90
2023-04-28T06:18:12.555Z,15.00
2023-04-28T06:20:39.337Z,15.00
2023-04-28T06:23:06.800Z,15.00
2023-04-28T06:25:33.783Z,15.00
2023-04-28T06:28:00.603Z,15.10
2023-04-28T06:30:27.502Z,15.10
2023-04-28T06:32:54.665Z,15.10
2023-04-28T06:35:22.388Z,15.10
2023-04-28T06:37:49.373Z,15.20
2023-04-28T06:40:16.243Z,15.20
2023-04-28T06:42:43.306Z,15.30
2023-04-28T06:45:10.348Z,15.40
2023-04-28T06:47:37.544Z,15.40
2023-04-28T06:50:04.512Z,15.40
2023-04-28T06:52:38.459Z,15.30
2023-04-28T06:55:10.461Z,15.30
2023-04-28T06:57:38.474Z,15.30
2023-04-28T07:00:06.313Z,15.30
2023-04-28T07:02:33.512Z,15.30
2023-04-28T07:05:00.812Z,15.30
2023-04-28T07:07:27.563Z,15.40
2023-04-28T07:09:54.599Z,15.40
2023-04-28T07:12:22.484Z,15.40
2023-04-28T07:14:50.698Z,15.50
2023-04-28T07:17:17.577Z,15.50
2023-04-28T07:19:44.425Z,15.50
2023-04-28T07:22:11.315Z,15.40
2023-04-28T07:24:38.099Z,15.40
2023-04-28T07:27:05.127Z,15.40
2023-04-28T07:29:34.357Z,15.30
2023-04-28T07:32:04.693Z,15.30
2023-04-28T07:34:32.887Z,15.20
2023-04-28T07:36:59.868Z,15.20
2023-04-28T07:39:26.762Z,15.20
2023-04-28T07:41:54.232Z,15.10
2023-04-28T07:44:21.743Z,15.10
2023-04-28T07:46:50.352Z,15.10
2023-04-28T07:49:18.964Z,15.10
2023-04-28T07:51:45.733Z,15.00
2023-04-28T07:54:12.684Z,15.00
2023-04-28T07:56:39.534Z,14.90
2023-04-28T07:59:06.448Z,14.90
2023-04-28T08:01:33.346Z,14.90
2023-04-28T08:04:01.398Z,14.90
2023-04-28T08:06:28.483Z,14.90
2023-04-28T08:08:56.070Z,14.80
2023-04-28T08:11:23.118Z,14.90
2023-04-28T08:13:50.040Z,14.90
2023-04-28T08:16:17.303Z,14.90
2023-04-28T08:18:44.307Z,15.00
2023-04-28T08:21:11.245Z,15.00
2023-04-28T08:23:38.105Z,15.00
2023-04-28T08:26:04.978Z,15.00
2023-04-28T08:28:34.013Z,15.10
2023-04-28T08:31:01.152Z,15.10
2023-04-28T08:33:28.048Z,15.20
2023-04-28T08:35:56.401Z,15.10
2023-04-28T08:38:25.119Z,15.70
2023-04-28T08:40:51.948Z,15.10
2023-04-28T08:43:20.864Z,15.20
2023-04-28T08:45:47.975Z,15.20
2023-04-28T08:48:22.886Z,15.20
2023-04-28T08:50:54.503Z,15.10
2023-04-28T08:53:26.123Z,15.10
2023-04-28T08:55:57.079Z,15.10
2023-04-28T08:58:28.633Z,15.10
2023-04-28T09:00:55.640Z,15.00
2023-04-28T09:03:22.948Z,14.90
2023-04-28T09:05:50.147Z,14.90
2023-04-28T09:08:18.470Z,15.00
2023-04-28T09:10:45.494Z,14.90
2023-04-28T09:13:25.554Z,14.90
2023-04-28T09:16:00.227Z,15.00
2023-04-28T09:18:27.315Z,15.00
2023-04-28T09:21:06.241Z,15.00
2023-04-28T09:23:36.239Z,15.10
2023-04-28T09:26:11.128Z,15.10
2023-04-28T09:28:38.158Z,15.10
2023-04-28T09:31:05.267Z,15.10
2023-04-28T09:33:32.466Z,15.20
2023-04-28T09:35:59.368Z,15.30
2023-04-28T09:38:26.294Z,15.30
2023-04-28T09:41:03.678Z,15.40
2023-04-28T09:43:36.603Z,15.50
2023-04-28T09:46:05.295Z,15.40
2023-04-28T09:48:34.083Z,15.50
2023-04-28T09:51:03.020Z,15.50
2023-04-28T09:53:30.930Z,15.50
2023-04-28T09:55:59.864Z,15.50
2023-04-28T09:58:28.765Z,15.50
2023-04-28T10:00:58.109Z,15.50
2023-04-28T10:03:30.420Z,15.60
2023-04-28T10:06:02.790Z,15.60
2023-04-28T10:08:29.878Z,15.60
2023-04-28T10:10:57.902Z,15.60
2023-04-28T10:13:25.390Z,15.70
2023-04-28T10:15:55.834Z,15.80
2023-04-28T10:18:24.054Z,15.90
2023-04-28T10:21:00.436Z,16.00
2023-04-28T10:23:47.999Z,16.10
2023-04-28T10:26:18.403Z,16.10
2023-04-28T10:28:47.424Z,16.10
2023-04-28T10:31:21.237Z,16.20
2023-04-28T10:33:48.835Z,16.20
2023-04-28T10:36:54.838Z,16.20
2023-04-28T10:39:21.741Z,16.30
2023-04-28T10:41:49.297Z,16.40
2023-04-28T10:44:28.583Z,16.40
2023-04-28T10:47:06.956Z,16.40
2023-04-28T10:49:56.439Z,16.40
2023-04-28T10:52:41.323Z,16.40
2023-04-28T10:55:36.381Z,16.50
2023-04-28T10:58:26.801Z,16.50
2023-04-28T11:00:53.891Z,16.40
2023-04-28T11:03:46.850Z,16.40
2023-04-28T11:06:29.072Z,16.40
2023-04-28T11:08:57.774Z,16.40
2023-04-28T11:11:26.619Z,16.40
2023-04-28T11:14:15.009Z,16.40
2023-04-28T11:17:02.817Z,16.50
2023-04-28T11:19:37.741Z,16.50
2023-04-28T11:22:11.780Z,16.50
2023-04-28T11:24:38.799Z,16.50
2023-04-28T11:27:06.049Z,16.60
2023-04-28T11:29:33.565Z,16.60
2023-04-28T11:32:01.203Z,16.70
2023-04-28T11:34:28.277Z,16.80
2023-04-28T11:36:55.764Z,16.90
2023-04-28T11:39:31.104Z,16.90
2023-04-28T11:41:59.803Z,17.00
2023-04-28T11:44:28.988Z,17.00
2023-04-28T11:47:01.455Z,17.10
2023-04-28T11:49:30.459Z,17.10
2023-04-28T11:52:00.239Z,17.10
2023-04-28T11:54:30.402Z,17.20
2023-04-28T11:56:58.763Z,17.20
2023-04-28T11:59:27.193Z,17.20
2023-04-28T12:01:59.728Z,17.20
2023-04-28T12:04:27.281Z,17.20
2023-04-28T12:07:03.073Z,17.30
2023-04-28T12:09:30.380Z,17.30
2023-04-28T12:11:59.526Z,17.40
2023-04-28T12:14:26.548Z,17.40
2023-04-28T12:16:53.775Z,17.40
2023-04-28T12:19:21.179Z,17.50
2023-04-28T12:22:02.787Z,17.50
2023-04-28T12:24:29.965Z,17.60
2023-04-28T12:27:16.816Z,17.60
2023-04-28T12:29:46.543Z,17.60
2023-04-28T12:32:13.958Z,17.60
2023-04-28T12:34:42.636Z,17.60
2023-04-28T12:37:10.097Z,17.60
2023-04-28T12:39:39.804Z,17.70
2023-04-28T12:42:08.051Z,17.70
2023-04-28T12:44:38.176Z,17.30
2023-04-28T12:47:07.686Z,17.60
2023-04-28T12:49:35.910Z,17.60
2023-04-28T12:52:03.775Z,17.70
2023-04-28T12:54:31.321Z,17.60
2023-04-28T12:56:58.776Z,17.60
2023-04-28T12:59:26.185Z,17.50
2023-04-28T13:01:53.321Z,17.50
2023-04-28T13:04:20.874Z,17.50
2023-04-28T13:06:48.506Z,17.50
2023-04-28T13:09:15.827Z,17.50
2023-04-28T13:11:43.428Z,17.40
2023-04-28T13:14:10.496Z,17.30
2023-04-28T13:16:37.658Z,17.30
2023-04-28T13:19:09.497Z,17.10
2023-04-28T13:21:39.150Z,17.10
2023-04-28T13:24:06.494Z,17.10
2023-04-28T13:26:33.839Z,17.00
2023-04-28T13:29:02.265Z,17.00
2023-04-28T13:31:30.337Z,17.00
2023-04-28T13:33:58.047Z,17.00
2023-04-28T13:36:25.948Z,16.90
2023-04-28T13:38:52.750Z,16.90
2023-04-28T13:41:19.666Z,16.90
2023-04-28T13:43:46.654Z,16.90
2023-04-28T13:46:13.678Z,16.90
2023-04-28T13:48:41.374Z,16.90
2023-04-28T13:51:08.717Z,17.00
2023-04-28T13:53:38.026Z,17.00
2023-04-28T13:56:06.817Z,17.00
2023-04-28T13:58:33.910Z,17.00
2023-04-28T14:01:01.225Z,17.10
2023-04-28T14:03:28.142Z,17.10
2023-04-28T14:05:56.729Z,17.20
2023-04-28T14:08:26.501Z,17.20
2023-04-28T14:10:54.813Z,17.20
2023-04-28T14:13:21.735Z,17.20
2023-04-28T14:15:58.383Z,17.20
2023-04-28T14:18:26.792Z,17.10
2023-04-28T14:20:54.714Z,17.10
2023-04-28T14:23:22.815Z,17.10
2023-04-28T14:25:50.388Z,17.10
2023-04-28T14:28:17.478Z,17.10
2023-04-28T14:30:44.439Z,17.00
2023-04-28T14:33:11.421Z,17.00
2023-04-28T14:35:38.321Z,17.10
2023-04-28T14:38:05.457Z,17.10
2023-04-28T14:40:32.394Z,17.10
2023-04-28T14:42:59.145Z,17.10
2023-04-28T14:45:26.395Z,17.10
2023-04-28T14:47:53.979Z,17.20
2023-04-28T14:50:21.032Z,17.20
2023-04-28T14:52:47.846Z,17.10
2023-04-28T14:55:14.671Z,17.10
2023-04-28T14:57:42.107Z,17.00
2023-04-28T15:00:09.538Z,17.00
2023-04-28T15:02:36.579Z,17.00
2023-04-28T15:05:03.835Z,17.00
2023-04-28T15:07:33.832Z,17.00
2023-04-28T15:10:01.066Z,17.00
2023-04-28T15:12:30.576Z,17.00
2023-04-28T15:14:58.024Z,17.00
2023-04-28T15:17:25.477Z,17.00
2023-04-28T15:19:52.372Z,17.00
2023-04-28T15:22:19.291Z,17.00
2023-04-28T15:24:46.310Z,17.10
2023-04-28T15:27:13.473Z,17.10
2023-04-28T15:29:40.270Z,17.10
2023-04-28T15:32:07.103Z,17.10
2023-04-28T15:34:34.561Z,17.20
2023-04-28T15:37:02.512Z,17.20
2023-04-28T15:39:29.501Z,17.30
2023-04-28T15:41:56.271Z,17.30
2023-04-28T15:44:23.278Z,17.30
2023-04-28T15:46:52.518Z,17.20
2023-04-28T15:49:19.713Z,17.20
2023-04-28T15:51:46.900Z,17.20
2023-04-28T15:54:13.688Z,17.20
2023-04-28T15:56:40.507Z,17.20
2023-04-28T15:59:08.444Z,17.20
2023-04-28T16:01:35.429Z,17.20
2023-04-28T16:04:02.705Z,17.30
2023-04-28T16:06:31.395Z,17.20
2023-04-28T16:08:58.339Z,17.30
2023-04-28T16:11:25.176Z,17.30
2023-04-28T16:13:52.055Z,17.30
2023-04-28T16:16:21.653Z,17.30
2023-04-28T16:18:49.385Z,17.30
2023-04-28T16:21:17.465Z,17.30
2023-04-28T16:23:45.444Z,17.30
2023-04-28T16:26:12.466Z,17.30
2023-04-28T16:28:39.365Z,17.40
2023-04-28T16:31:06.809Z,17.40
2023-04-28T16:33:33.979Z,17.30
2023-04-28T16:36:01.008Z,17.30
2023-04-28T16:38:28.345Z,17.40
2023-04-28T16:40:55.268Z,17.40
2023-04-28T16:43:22.060Z,17.40
2023-04-28T16:45:49.555Z,17.40
2023-04-28T16:48:18.456Z,17.40
2023-04-28T16:50:45.885Z,17.20
2023-04-28T16:53:12.882Z,17.20
2023-04-28T16:55:39.910Z,17.00
2023-04-28T16:58:06.787Z,16.90
2023-04-28T17:00:33.773Z,17.00
2023-04-28T17:03:00.852Z,16.80
2023-04-28T17:05:27.954Z,16.70
2023-04-28T17:07:55.167Z,16.70
2023-04-28T17:10:22.629Z,16.80
2023-04-28T17:12:49.434Z,16.80
2023-04-28T17:15:17.585Z,16.90
2023-04-28T17:17:48.306Z,16.90
2023-04-28T17:20:18.077Z,16.90
2023-04-28T17:22:45.089Z,16.90
2023-04-28T17:25:12.441Z,16.90
2023-04-28T17:27:39.486Z,16.90
2023-04-28T17:30:10.698Z,16.80
2023-04-28T17:32:38.288Z,16.80
2023-04-28T17:35:06.053Z,16.80
2023-04-28T17:37:34.891Z,16.90
2023-04-28T17:40:02.169Z,16.90
2023-04-28T17:42:31.555Z,16.90
2023-04-28T17:44:58.508Z,16.90
2023-04-28T17:47:25.379Z,16.90
2023-04-28T17:49:52.433Z,16.90
2023-04-28T17:52:19.277Z,16.90
2023-04-28T17:54:46.399Z,16.90
2023-04-28T17:57:13.417Z,17.00
2023-04-28T17:59:40.703Z,16.90
2023-04-28T18:02:11.776Z,16.90
2023-04-28T18:04:38.904Z,16.90
2023-04-28T18:07:07.907Z,16.90
2023-04-28T18:09:34.863Z,16.90
2023-04-28T18:12:05.382Z,16.90
2023-04-28T18:14:32.294Z,16.80
2023-04-28T18:16:59.441Z,16.80
2023-04-28T18:19:28.115Z,16.80
2023-04-28T18:21:56.845Z,16.80
2023-04-28T18:24:24.267Z,16.80
2023-04-28T18:26:51.138Z,16.80
2023-04-28T18:29:19.006Z,16.80
2023-04-28T18:31:46.296Z,16.70
2023-04-28T18:34:13.585Z,16.70
2023-04-28T18:36:40.620Z,16.70
2023-04-28T18:39:09.022Z,16.70
2023-04-28T18:41:36.938Z,16.70
2023-04-28T18:44:04.146Z,16.70
2023-04-28T18:46:31.333Z,16.70
2023-04-28T18:48:58.239Z,16.60
2023-04-28T18:51:25.381Z,16.60
2023-04-28T18:53:52.269Z,16.50
2023-04-28T18:56:21.085Z,16.50
2023-04-28T18:58:48.053Z,16.40
2023-04-28T19:01:16.400Z,16.40
2023-04-28T19:03:44.192Z,16.40
2023-04-28T19:06:11.943Z,16.50
2023-04-28T19:08:39.223Z,16.50
2023-04-28T19:11:07.268Z,16.50
2023-04-28T19:13:35.723Z,16.50
2023-04-28T19:16:02.941Z,16.60
2023-04-28T19:18:32.086Z,16.60
2023-04-28T19:21:03.519Z,16.50
2023-04-28T19:23:31.183Z,16.50
2023-04-28T19:25:59.138Z,16.50
2023-04-28T19:28:26.423Z,16.40
2023-04-28T19:30:55.490Z,16.40
2023-04-28T19:33:25.549Z,16.40
2023-04-28T19:35:58.456Z,16.40
2023-04-28T19:38:26.666Z,16.30
2023-04-28T19:41:01.119Z,16.20
2023-04-28T19:43:28.132Z,16.30
2023-04-28T19:45:55.014Z,16.20
2023-04-28T19:48:21.959Z,16.30
2023-04-28T19:50:48.965Z,16.20
2023-04-28T19:53:15.828Z,16.30
2023-04-28T19:55:43.011Z,16.20
2023-04-28T19:58:10.620Z,16.20
2023-04-28T20:00:37.397Z,16.20
2023-04-28T20:03:04.459Z,16.20
2023-04-28T20:05:31.460Z,16.20
2023-04-28T20:07:58.413Z,16.20
2023-04-28T20:10:25.419Z,16.10
2023-04-28T20:12:53.695Z,16.10
2023-04-28T20:15:20.945Z,16.10
2023-04-28T20:17:47.808Z,16.00
2023-04-28T20:20:14.667Z,16.00
2023-04-28T20:22:41.489Z,16.00
2023-04-28T20:25:10.549Z,16.00
2023-04-28T20:27:37.717Z,16.00
2023-04-28T20:30:05.307Z,16.00
2023-04-28T20:32:32.307Z,16.00
2023-04-28T20:34:59.402Z,15.90
2023-04-28T20:37:26.520Z,15.90
2023-04-28T20:39:53.934Z,15.90
2023-04-28T20:42:20.729Z,15.90
2023-04-28T20:44:47.566Z,15.90
2023-04-28T20:47:14.633Z,15.90
2023-04-28T20:49:41.977Z,15.80
2023-04-28T20:52:09.369Z,15.80
2023-04-28T20:54:36.478Z,15.80
2023-04-28T20:57:04.544Z,15.80
2023-04-28T20:59:34.333Z,15.70
2023-04-28T21:02:01.302Z,15.70
2023-04-28T21:04:28.491Z,15.60
2023-04-28T21:06:55.749Z,15.60
2023-04-28T21:09:25.369Z,15.60
2023-04-28T21:11:52.584Z,15.60
2023-04-28T21:14:19.535Z,15.60
2023-04-28T21:16:46.539Z,15.60
2023-04-28T21:19:13.572Z,15.60
2023-04-28T21:21:40.440Z,15.60
2023-04-28T21:24:08.248Z,15.60
2023-04-28T21:26:35.991Z,15.50
2023-04-28T21:29:03.168Z,15.50
2023-04-28T21:31:30.800Z,15.50
2023-04-28T21:33:57.918Z,15.50
2023-04-28T21:36:24.953Z,15.50
2023-04-28T21:38:51.909Z,15.50
2023-04-28T21:41:18.904Z,15.50
2023-04-28T21:43:46.052Z,15.50
2023-04-28T21:46:13.228Z,15.50
2023-04-28T21:48:40.162Z,15.50
2023-04-28T21:51:07.251Z,15.40
2023-04-28T21:53:34.561Z,15.50
2023-04-28T21:56:01.500Z,15.40
2023-04-28T21:58:28.253Z,15.50
2023-04-28T22:00:55.189Z,15.50
2023-04-28T22:03:22.523Z,15.40
2023-04-28T22:05:49.502Z,15.50
2023-04-28T22:08:16.976Z,15.50
2023-04-28T22:10:45.767Z,15.50
2023-04-28T22:13:16.225Z,15.40
2023-04-28T22:15:43.206Z,15.50
2023-04-28T22:18:10.204Z,15.50
2023-04-28T22:20:37.348Z,15.50
2023-04-28T22:23:04.649Z,15.50
2023-04-28T22:25:31.873Z,15.50
2023-04-28T22:27:58.719Z,15.50
2023-04-28T22:30:26.279Z,15.60
2023-04-28T22:32:53.502Z,15.50
2023-04-28T22:35:20.346Z,15.40
2023-04-28T22:37:47.427Z,15.50
2023-04-28T22:40:14.503Z,15.50
2023-04-28T22:42:42.517Z,15.50
2023-04-28T22:45:10.882Z,15.50
2023-04-28T22:47:40.093Z,15.50
2023-04-28T22:50:11.033Z,15.50
2023-04-28T22:52:37.971Z,15.40
2023-04-28T22:55:05.666Z,15.50
2023-04-28T22:57:32.450Z,15.40
2023-04-28T22:59:59.454Z,15.40
2023-04-28T23:02:26.496Z,15.40
2023-04-28T23:04:53.736Z,15.40
2023-04-28T23:07:20.824Z,15.40
2023-04-28T23:09:47.637Z,15.40
2023-04-28T23:12:14.493Z,15.40
2023-04-28T23:14:41.311Z,15.40
2023-04-28T23:17:08.139Z,15.40
2023-04-28T23:19:39.281Z,15.40
2023-04-28T23:22:07.589Z,15.40
2023-04-28T23:24:36.933Z,15.40
2023-04-28T23:27:04.630Z,15.30
2023-04-28T23:29:31.879Z,15.40
2023-04-28T23:31:58.938Z,15.40
2023-04-28T23:34:25.754Z,15.30
2023-04-28T23:36:52.551Z,15.40
2023-04-28T23:39:19.492Z,15.30
2023-04-28T23:41:46.877Z,15.30
2023-04-28T23:44:13.638Z,15.30
2023-04-28T23:46:40.467Z,15.30
2023-04-28T23:49:07.419Z,15.20
2023-04-28T23:51:34.153Z,15.20
2023-04-28T23:54:01.861Z,15.30
2023-04-28T23:56:29.038Z,15.20
2023-04-28T23:58:56.156Z,15.20
